createdAt,value
2019-05-12T00:00:24.691Z,10.10
2019-05-12T00:00:59.757Z,10.10
2019-05-12T00:01:33.267Z,10.10
2019-05-12T00:02:07.670Z,10.10
2019-05-12T00:02:41.669Z,10.10
2019-05-12T00:03:15.456Z,10.10
2019-05-12T00:03:48.878Z,10.10
2019-05-12T00:04:22.665Z,10.10
2019-05-12T00:04:58.269Z,10.10
2019-05-12T00:05:31.894Z,10.10
2019-05-12T00:06:05.309Z,10.10
2019-05-12T00:06:39.097Z,10.10
2019-05-12T00:07:12.911Z,10.10
2019-05-12T00:07:48.625Z,10.10
2019-05-12T00:08:21.788Z,10.20
2019-05-12T00:08:57.842Z,10.10
2019-05-12T00:09:31.011Z,10.10
2019-05-12T00:10:05.637Z,10.10
2019-05-12T00:10:39.057Z,10.10
2019-05-12T00:11:12.849Z,10.10
2019-05-12T00:11:48.412Z,10.10
2019-05-12T00:12:22.063Z,10.20
2019-05-12T00:12:55.515Z,10.10
2019-05-12T00:13:29.323Z,10.20
2019-05-12T00:14:03.112Z,10.10
2019-05-12T00:14:38.139Z,10.10
2019-05-12T00:15:11.820Z,10.20
2019-05-12T00:15:47.538Z,10.20
2019-05-12T00:16:21.037Z,10.20
2019-05-12T00:16:54.821Z,10.20
2019-05-12T00:17:28.490Z,10.20
2019-05-12T00:18:02.338Z,10.20
2019-05-12T00:18:37.791Z,10.20
2019-05-12T00:19:11.604Z,10.20
2019-05-12T00:19:45.029Z,10.10
2019-05-12T00:20:18.808Z,10.20
2019-05-12T00:20:52.598Z,10.20
2019-05-12T00:21:28.362Z,10.20
2019-05-12T00:22:01.459Z,10.20
2019-05-12T00:22:38.150Z,10.20
2019-05-12T00:23:23.942Z,10.20
2019-05-12T00:24:05.158Z,10.20
2019-05-12T00:24:38.596Z,10.20
2019-05-12T00:25:12.391Z,10.10
2019-05-12T00:25:48.030Z,10.20
2019-05-12T00:26:21.602Z,10.20
2019-05-12T00:26:58.059Z,10.20
2019-05-12T00:27:31.948Z,10.20
2019-05-12T00:28:07.723Z,10.20
2019-05-12T00:28:41.182Z,10.20
2019-05-12T00:29:14.625Z,10.20
2019-05-12T00:29:48.610Z,10.20
2019-05-12T00:30:38.483Z,10.10
2019-05-12T00:31:11.241Z,10.20
2019-05-12T00:31:44.667Z,10.20
2019-05-12T00:32:18.456Z,10.20
2019-05-12T00:32:52.239Z,10.10
2019-05-12T00:33:28.142Z,10.20
2019-05-12T00:34:01.098Z,10.20
2019-05-12T00:34:34.890Z,10.20
2019-05-12T00:35:08.706Z,10.20
2019-05-12T00:35:42.507Z,10.20
2019-05-12T00:36:15.929Z,10.20
2019-05-12T00:36:49.719Z,10.20
2019-05-12T00:37:23.511Z,10.20
2019-05-12T00:37:57.779Z,10.20
2019-05-12T00:38:31.398Z,10.20
2019-05-12T00:39:08.622Z,10.20
2019-05-12T00:39:42.544Z,10.20
2019-05-12T00:40:16.340Z,10.20
2019-05-12T00:40:49.780Z,10.10
2019-05-12T00:41:23.599Z,10.20
2019-05-12T00:41:58.630Z,10.20
2019-05-12T00:42:32.679Z,10.20
2019-05-12T00:43:08.462Z,10.10
2019-05-12T00:43:41.546Z,10.20
2019-05-12T00:44:15.357Z,10.10
2019-05-12T00:44:49.122Z,10.20
2019-05-12T00:45:22.543Z,10.10
2019-05-12T00:45:58.502Z,10.10
2019-05-12T00:46:31.782Z,10.20
2019-05-12T00:47:05.584Z,10.20
2019-05-12T00:47:39.082Z,10.20
2019-05-12T00:48:12.893Z,10.20
2019-05-12T00:48:48.246Z,10.10
2019-05-12T00:49:22.177Z,10.20
2019-05-12T00:49:55.634Z,10.20
2019-05-12T00:50:29.387Z,10.10
2019-05-12T00:51:03.178Z,10.20
2019-05-12T00:51:38.444Z,10.20
2019-05-12T00:52:11.978Z,10.10
2019-05-12T00:52:45.785Z,10.20
2019-05-12T00:53:19.567Z,10.20
2019-05-12T00:53:53.357Z,10.20
2019-05-12T00:54:28.518Z,10.10
2019-05-12T00:55:02.215Z,10.10
2019-05-12T00:55:38.114Z,10.20
2019-05-12T00:56:11.455Z,10.10
2019-05-12T00:56:44.877Z,10.10
2019-05-12T00:57:18.668Z,10.10
2019-05-12T00:57:52.479Z,10.20
2019-05-12T00:58:27.813Z,10.10
2019-05-12T00:59:01.495Z,10.10
2019-05-12T00:59:35.306Z,10.20
2019-05-12T01:00:09.087Z,10.20
2019-05-12T01:00:42.880Z,10.10
2019-05-12T01:01:18.367Z,10.20
2019-05-12T01:01:51.744Z,10.20
2019-05-12T01:02:25.531Z,10.10
2019-05-12T01:02:59.320Z,10.20
2019-05-12T01:03:32.769Z,10.20
2019-05-12T01:04:08.721Z,10.20
2019-05-12T01:04:42.077Z,10.20
2019-05-12T01:05:17.724Z,10.20
2019-05-12T01:05:50.931Z,10.20
2019-05-12T01:06:24.714Z,10.20
2019-05-12T01:06:58.513Z,10.20
2019-05-12T01:07:32.291Z,10.20
2019-05-12T01:08:08.481Z,10.20
2019-05-12T01:08:41.140Z,10.20
2019-05-12T01:09:14.947Z,10.20
2019-05-12T01:09:49.222Z,10.20
2019-05-12T01:10:22.889Z,10.20
2019-05-12T01:10:58.296Z,10.20
2019-05-12T01:11:32.109Z,10.20
2019-05-12T01:12:07.812Z,10.20
2019-05-12T01:12:40.966Z,10.20
2019-05-12T01:13:14.758Z,10.20
2019-05-12T01:13:48.615Z,10.20
2019-05-12T01:14:22.441Z,10.20
2019-05-12T01:14:58.021Z,10.20
2019-05-12T01:15:31.340Z,10.20
2019-05-12T01:16:05.127Z,10.20
2019-05-12T01:16:38.916Z,10.20
2019-05-12T01:17:12.339Z,10.20
2019-05-12T01:17:47.770Z,10.20
2019-05-12T01:18:21.572Z,10.20
2019-05-12T01:18:55.360Z,10.20
2019-05-12T01:19:28.976Z,10.20
2019-05-12T01:20:02.868Z,10.20
2019-05-12T01:20:38.999Z,10.20
2019-05-12T01:21:12.139Z,10.20
2019-05-12T01:21:45.562Z,10.20
2019-05-12T01:22:19.345Z,10.20
2019-05-12T01:22:53.132Z,10.20
2019-05-12T01:23:28.108Z,10.20
2019-05-12T01:24:03.447Z,10.20
2019-05-12T01:24:38.397Z,10.20
2019-05-12T01:25:12.284Z,10.20
2019-05-12T01:25:47.823Z,10.20
2019-05-12T01:26:21.201Z,10.20
2019-05-12T01:26:54.973Z,10.20
2019-05-12T01:27:28.824Z,10.20
2019-05-12T01:28:02.551Z,10.20
2019-05-12T01:28:38.136Z,10.20
2019-05-12T01:29:11.413Z,10.30
2019-05-12T01:29:45.199Z,10.20
2019-05-12T01:30:18.981Z,10.20
2019-05-12T01:30:53.780Z,10.20
2019-05-12T01:31:28.846Z,10.30
2019-05-12T01:32:09.772Z,10.20
2019-05-12T01:32:42.887Z,10.30
2019-05-12T01:33:18.080Z,10.20
2019-05-12T01:33:51.749Z,10.30
2019-05-12T01:34:27.605Z,10.20
2019-05-12T01:35:00.973Z,10.20
2019-05-12T01:35:34.393Z,10.20
2019-05-12T01:36:08.184Z,10.20
2019-05-12T01:36:41.977Z,10.30
2019-05-12T01:37:24.903Z,10.20
2019-05-12T01:38:01.357Z,10.20
2019-05-12T01:38:33.777Z,10.20
2019-05-12T01:39:08.279Z,10.30
2019-05-12T01:39:42.226Z,10.20
2019-05-12T01:40:15.639Z,10.30
2019-05-12T01:40:49.429Z,10.20
2019-05-12T01:41:23.218Z,10.20
2019-05-12T01:41:58.696Z,10.20
2019-05-12T01:42:32.223Z,10.20
2019-05-12T01:43:08.235Z,10.20
2019-05-12T01:43:41.492Z,10.20
2019-05-12T01:44:15.283Z,10.20
2019-05-12T01:44:48.768Z,10.20
2019-05-12T01:45:22.553Z,10.20
2019-05-12T01:45:58.649Z,10.20
2019-05-12T01:46:31.844Z,10.20
2019-05-12T01:47:05.295Z,10.20
2019-05-12T01:47:39.058Z,10.20
2019-05-12T01:48:12.850Z,10.20
2019-05-12T01:48:48.389Z,10.20
2019-05-12T01:49:21.907Z,10.20
2019-05-12T01:49:57.963Z,10.20
2019-05-12T01:50:31.125Z,10.20
2019-05-12T01:51:04.911Z,10.20
2019-05-12T01:51:38.659Z,10.20
2019-05-12T01:52:12.720Z,10.20
2019-05-12T01:52:47.864Z,10.20
2019-05-12T01:53:21.898Z,10.20
2019-05-12T01:54:08.615Z,10.20
2019-05-12T01:54:30.780Z,10.20
2019-05-12T01:55:08.215Z,10.20
2019-05-12T01:55:42.271Z,10.20
2019-05-12T01:56:15.694Z,10.20
2019-05-12T01:56:49.484Z,10.20
2019-05-12T01:57:23.267Z,10.20
2019-05-12T01:57:57.693Z,10.20
2019-05-12T01:58:31.490Z,10.20
2019-05-12T01:59:05.281Z,10.20
2019-05-12T01:59:39.064Z,10.20
2019-05-12T02:00:12.949Z,10.20
2019-05-12T02:00:48.270Z,10.20
2019-05-12T02:01:22.345Z,10.20
2019-05-12T02:01:58.105Z,10.20
2019-05-12T02:02:31.569Z,10.20
2019-05-12T02:03:04.993Z,10.20
2019-05-12T02:03:38.782Z,10.20
2019-05-12T02:04:12.574Z,10.20
2019-05-12T02:05:02.701Z,10.20
2019-05-12T02:05:38.080Z,10.20
2019-05-12T02:06:12.029Z,10.20
2019-05-12T02:06:45.807Z,10.20
2019-05-12T02:07:19.603Z,10.20
2019-05-12T02:07:54.891Z,10.20
2019-05-12T02:08:29.956Z,10.20
2019-05-12T02:09:05.020Z,10.20
2019-05-12T02:09:38.855Z,10.20
2019-05-12T02:10:12.243Z,10.20
2019-05-12T02:10:48.000Z,10.20
2019-05-12T02:11:33.417Z,10.20
2019-05-12T02:12:08.219Z,10.10
2019-05-12T02:12:41.870Z,10.10
2019-05-12T02:13:15.637Z,10.20
2019-05-12T02:13:49.423Z,10.10
2019-05-12T02:14:23.211Z,10.10
2019-05-12T02:14:58.425Z,10.20
2019-05-12T02:15:32.075Z,10.10
2019-05-12T02:16:08.177Z,10.10
2019-05-12T02:16:41.296Z,10.20
2019-05-12T02:17:14.738Z,10.10
2019-05-12T02:17:48.543Z,10.10
2019-05-12T02:18:22.336Z,10.10
2019-05-12T02:18:58.184Z,10.10
2019-05-12T02:19:31.185Z,10.10
2019-05-12T02:20:08.516Z,10.10
2019-05-12T02:20:42.294Z,10.10
2019-05-12T02:21:16.078Z,10.10
2019-05-12T02:21:51.141Z,10.10
2019-05-12T02:22:24.935Z,10.10
2019-05-12T02:22:58.758Z,10.10
2019-05-12T02:23:32.557Z,10.10
2019-05-12T02:24:07.841Z,10.10
2019-05-12T02:24:41.412Z,10.10
2019-05-12T02:25:15.202Z,10.10
2019-05-12T02:25:48.988Z,10.10
2019-05-12T02:26:22.420Z,10.10
2019-05-12T02:26:57.870Z,10.10
2019-05-12T02:27:31.629Z,10.10
2019-05-12T02:28:05.426Z,10.10
2019-05-12T02:28:39.460Z,10.10
2019-05-12T02:29:13.566Z,10.10
2019-05-12T02:29:47.999Z,10.10
2019-05-12T02:30:22.050Z,10.10
2019-05-12T02:30:58.737Z,10.10
2019-05-12T02:31:30.913Z,10.10
2019-05-12T02:32:04.710Z,10.10
2019-05-12T02:32:48.568Z,10.10
2019-05-12T02:33:15.958Z,10.10
2019-05-12T02:33:48.997Z,10.10
2019-05-12T02:34:25.324Z,10.10
2019-05-12T02:34:58.259Z,10.10
2019-05-12T02:35:35.230Z,10.10
2019-05-12T02:36:07.120Z,10.10
2019-05-12T02:36:40.912Z,10.10
2019-05-12T02:37:15.434Z,10.10
2019-05-12T02:37:49.016Z,10.00
2019-05-12T02:38:25.100Z,10.10
2019-05-12T02:38:58.235Z,10.10
2019-05-12T02:39:35.026Z,10.10
2019-05-12T02:40:08.152Z,10.10
2019-05-12T02:40:44.913Z,10.10
2019-05-12T02:41:17.390Z,10.00
2019-05-12T02:41:54.094Z,10.10
2019-05-12T02:42:26.265Z,10.00
2019-05-12T02:43:00.062Z,10.00
2019-05-12T02:43:34.787Z,10.00
2019-05-12T02:44:08.747Z,10.00
2019-05-12T02:44:44.361Z,10.00
2019-05-12T02:45:17.611Z,10.00
2019-05-12T02:45:51.411Z,10.00
2019-05-12T02:46:25.846Z,10.00
2019-05-12T02:46:59.493Z,10.00
2019-05-12T02:47:34.657Z,10.00
2019-05-12T02:48:08.773Z,10.00
2019-05-12T02:48:44.984Z,10.00
2019-05-12T02:49:17.620Z,10.00
2019-05-12T02:49:54.241Z,10.00
2019-05-12T02:50:37.876Z,10.00
2019-05-12T02:51:15.501Z,10.00
2019-05-12T02:51:48.457Z,10.00
2019-05-12T02:52:25.019Z,10.00
2019-05-12T02:52:57.677Z,10.00
2019-05-12T02:53:34.903Z,10.00
2019-05-12T02:54:06.551Z,10.00
2019-05-12T02:54:51.926Z,10.00
2019-05-12T02:55:16.243Z,10.00
2019-05-12T02:55:50.600Z,10.00
2019-05-12T02:56:25.682Z,10.00
2019-05-12T02:56:59.801Z,10.00
2019-05-12T02:57:34.393Z,10.00
2019-05-12T02:58:08.375Z,10.00
2019-05-12T02:58:45.173Z,10.00
2019-05-12T02:59:17.969Z,10.00
2019-05-12T02:59:54.040Z,10.00
2019-05-12T03:00:27.200Z,10.00
2019-05-12T03:01:00.619Z,10.00
2019-05-12T03:01:35.089Z,10.00
2019-05-12T03:02:09.640Z,10.00
2019-05-12T03:02:44.238Z,10.00
2019-05-12T03:03:17.995Z,10.00
2019-05-12T03:03:54.859Z,10.00
2019-05-12T03:04:27.764Z,10.00
2019-05-12T03:05:04.699Z,10.00
2019-05-12T03:05:38.567Z,10.00
2019-05-12T03:06:15.153Z,10.00
2019-05-12T03:06:48.326Z,10.00
2019-05-12T03:07:25.199Z,10.00
2019-05-12T03:07:58.453Z,10.00
2019-05-12T03:08:34.813Z,10.00
2019-05-12T03:09:08.646Z,10.00
2019-05-12T03:09:44.668Z,10.00
2019-05-12T03:10:18.670Z,10.00
2019-05-12T03:10:54.862Z,10.00
2019-05-12T03:11:28.945Z,10.00
2019-05-12T03:12:05.881Z,10.00
2019-05-12T03:12:38.374Z,10.00
2019-05-12T03:13:14.879Z,10.00
2019-05-12T03:13:47.713Z,10.00
2019-05-12T03:14:25.206Z,10.00
2019-05-12T03:14:57.810Z,10.10
2019-05-12T03:15:31.601Z,10.10
2019-05-12T03:16:05.453Z,10.10
2019-05-12T03:16:39.256Z,10.10
2019-05-12T03:17:15.312Z,10.10
2019-05-12T03:17:48.115Z,10.10
2019-05-12T03:18:25.092Z,10.10
2019-05-12T03:18:57.434Z,10.10
2019-05-12T03:19:30.882Z,10.10
2019-05-12T03:20:06.221Z,10.10
2019-05-12T03:20:39.991Z,10.10
2019-05-12T03:21:15.175Z,10.10
2019-05-12T03:21:48.853Z,10.10
2019-05-12T03:22:25.245Z,10.20
2019-05-12T03:22:58.072Z,10.10
2019-05-12T03:23:35.027Z,10.20
2019-05-12T03:24:07.504Z,10.20
2019-05-12T03:24:44.699Z,10.20
2019-05-12T03:25:24.755Z,10.20
2019-05-12T03:25:54.623Z,10.20
2019-05-12T03:26:27.272Z,10.20
2019-05-12T03:27:04.131Z,10.20
2019-05-12T03:27:36.503Z,10.20
2019-05-12T03:28:10.291Z,10.20
2019-05-12T03:28:44.592Z,10.20
2019-05-12T03:29:18.909Z,10.20
2019-05-12T03:29:55.298Z,10.20
2019-05-12T03:30:29.696Z,10.30
2019-05-12T03:31:07.696Z,10.30
2019-05-12T03:31:40.734Z,10.30
2019-05-12T03:32:17.669Z,10.30
2019-05-12T03:32:49.550Z,10.30
2019-05-12T03:33:33.068Z,10.30
2019-05-12T03:34:00.516Z,10.30
2019-05-12T03:34:38.419Z,10.30
2019-05-12T03:35:09.629Z,10.40
2019-05-12T03:35:51.731Z,10.40
2019-05-12T03:36:18.729Z,10.40
2019-05-12T03:36:58.609Z,10.40
2019-05-12T03:37:31.208Z,10.40
2019-05-12T03:38:04.418Z,10.40
2019-05-12T03:38:38.386Z,10.40
2019-05-12T03:39:14.694Z,10.40
2019-05-12T03:39:47.618Z,10.40
2019-05-12T03:40:21.037Z,10.50
2019-05-12T03:40:55.158Z,10.50
2019-05-12T03:41:29.134Z,10.50
2019-05-12T03:42:05.121Z,10.50
2019-05-12T03:42:38.007Z,10.50
2019-05-12T03:43:14.264Z,10.50
2019-05-12T03:43:47.238Z,10.50
2019-05-12T03:44:21.026Z,10.50
2019-05-12T03:44:54.836Z,10.60
2019-05-12T03:45:28.747Z,10.60
2019-05-12T03:46:05.240Z,10.60
2019-05-12T03:46:37.983Z,10.60
2019-05-12T03:47:14.219Z,10.60
2019-05-12T03:47:46.862Z,10.60
2019-05-12T03:48:20.649Z,10.60
2019-05-12T03:48:55.360Z,10.60
2019-05-12T03:49:29.262Z,10.70
2019-05-12T03:50:04.565Z,10.70
2019-05-12T03:50:38.487Z,10.70
2019-05-12T03:51:15.194Z,10.70
2019-05-12T03:51:47.347Z,10.70
2019-05-12T03:52:24.104Z,10.70
2019-05-12T03:52:56.784Z,10.70
2019-05-12T03:53:30.796Z,10.70
2019-05-12T03:54:05.008Z,10.70
2019-05-12T03:54:39.255Z,10.80
2019-05-12T03:55:30.327Z,10.80
2019-05-12T03:55:48.475Z,10.80
2019-05-12T03:56:25.532Z,10.80
2019-05-12T03:56:57.335Z,10.80
2019-05-12T03:57:34.242Z,10.80
2019-05-12T03:58:06.615Z,10.80
2019-05-12T03:58:40.044Z,10.80
2019-05-12T03:59:15.069Z,10.80
2019-05-12T03:59:49.241Z,10.80
2019-05-12T04:00:24.684Z,10.80
2019-05-12T04:00:58.113Z,10.90
2019-05-12T04:01:35.834Z,10.90
2019-05-12T04:02:07.339Z,10.90
2019-05-12T04:02:41.118Z,10.90
2019-05-12T04:03:15.467Z,10.90
2019-05-12T04:03:49.430Z,10.90
2019-05-12T04:04:24.405Z,10.90
2019-05-12T04:04:58.355Z,10.90
2019-05-12T04:05:34.730Z,11.00
2019-05-12T04:06:07.251Z,11.00
2019-05-12T04:06:41.049Z,11.00
2019-05-12T04:07:15.434Z,11.00
2019-05-12T04:07:49.050Z,11.00
2019-05-12T04:08:24.599Z,11.00
2019-05-12T04:09:00.021Z,11.00
2019-05-12T04:09:34.870Z,11.00
2019-05-12T04:10:08.535Z,11.00
2019-05-12T04:10:45.191Z,11.00
2019-05-12T04:11:17.801Z,11.00
2019-05-12T04:11:54.585Z,11.00
2019-05-12T04:12:26.637Z,11.10
2019-05-12T04:13:00.434Z,11.10
2019-05-12T04:13:34.360Z,11.10
2019-05-12T04:14:08.276Z,11.10
2019-05-12T04:14:44.849Z,11.10
2019-05-12T04:15:17.141Z,11.10
2019-05-12T04:15:50.949Z,11.10
2019-05-12T04:16:25.077Z,11.10
2019-05-12T04:16:58.588Z,11.10
2019-05-12T04:17:35.010Z,11.20
2019-05-12T04:18:07.820Z,11.20
2019-05-12T04:18:44.764Z,11.20
2019-05-12T04:19:16.680Z,11.20
2019-05-12T04:19:50.461Z,11.20
2019-05-12T04:20:25.402Z,11.20
2019-05-12T04:20:59.545Z,11.20
2019-05-12T04:21:35.135Z,11.20
2019-05-12T04:22:08.447Z,11.20
2019-05-12T04:22:44.638Z,11.30
2019-05-12T04:23:17.668Z,11.30
2019-05-12T04:23:51.084Z,11.30
2019-05-12T04:24:25.153Z,11.30
2019-05-12T04:24:59.159Z,11.30
2019-05-12T04:25:47.874Z,11.30
2019-05-12T04:26:12.061Z,11.30
2019-05-12T04:26:44.852Z,11.30
2019-05-12T04:27:18.915Z,11.30
2019-05-12T04:27:54.190Z,11.30
2019-05-12T04:28:27.953Z,11.40
2019-05-12T04:29:04.833Z,11.40
2019-05-12T04:29:37.162Z,11.40
2019-05-12T04:30:14.203Z,11.40
2019-05-12T04:30:46.033Z,11.40
2019-05-12T04:31:19.812Z,11.40
2019-05-12T04:31:54.396Z,11.40
2019-05-12T04:32:28.281Z,11.50
2019-05-12T04:33:04.423Z,11.50
2019-05-12T04:33:37.182Z,11.50
2019-05-12T04:34:14.533Z,11.50
2019-05-12T04:34:46.395Z,11.50
2019-05-12T04:35:19.820Z,11.50
2019-05-12T04:35:55.359Z,11.50
2019-05-12T04:36:29.043Z,11.60
2019-05-12T04:37:04.552Z,11.60
2019-05-12T04:37:37.912Z,11.60
2019-05-12T04:38:14.645Z,11.60
2019-05-12T04:38:47.156Z,11.60
2019-05-12T04:39:20.962Z,11.60
2019-05-12T04:39:55.464Z,11.60
2019-05-12T04:40:29.669Z,11.60
2019-05-12T04:41:05.816Z,11.70
2019-05-12T04:41:38.900Z,11.70
2019-05-12T04:42:14.875Z,11.70
2019-05-12T04:42:47.770Z,11.70
2019-05-12T04:43:25.076Z,11.70
2019-05-12T04:43:57.341Z,11.80
2019-05-12T04:44:34.564Z,11.80
2019-05-12T04:45:07.372Z,11.80
2019-05-12T04:45:41.344Z,11.80
2019-05-12T04:46:15.315Z,11.80
2019-05-12T04:46:48.922Z,11.90
2019-05-12T04:47:25.252Z,11.90
2019-05-12T04:47:58.338Z,11.90
2019-05-12T04:48:35.675Z,11.90
2019-05-12T04:49:07.561Z,11.90
2019-05-12T04:49:41.346Z,12.00
2019-05-12T04:50:15.797Z,12.00
2019-05-12T04:50:50.137Z,12.00
2019-05-12T04:51:25.997Z,12.00
2019-05-12T04:51:59.185Z,12.00
2019-05-12T04:52:35.157Z,12.10
2019-05-12T04:53:08.783Z,12.10
2019-05-12T04:53:44.850Z,12.10
2019-05-12T04:54:17.837Z,12.10
2019-05-12T04:54:54.990Z,12.20
2019-05-12T04:55:27.436Z,12.20
2019-05-12T04:56:11.430Z,12.20
2019-05-12T04:56:36.559Z,12.20
2019-05-12T04:57:10.503Z,12.20
2019-05-12T04:57:45.251Z,12.30
2019-05-12T04:58:19.187Z,12.30
2019-05-12T04:58:54.540Z,12.30
2019-05-12T04:59:28.755Z,12.30
2019-05-12T05:00:05.067Z,12.30
2019-05-12T05:00:37.989Z,12.40
2019-05-12T05:01:15.182Z,12.40
2019-05-12T05:01:47.419Z,12.40
2019-05-12T05:02:24.624Z,12.40
2019-05-12T05:02:56.660Z,12.40
2019-05-12T05:03:30.445Z,12.50
2019-05-12T05:04:05.392Z,12.40
2019-05-12T05:04:40.109Z,12.50
2019-05-12T05:05:14.464Z,12.50
2019-05-12T05:05:48.505Z,12.50
2019-05-12T05:06:25.071Z,12.50
2019-05-12T05:06:57.922Z,12.50
2019-05-12T05:07:31.730Z,12.60
2019-05-12T05:08:05.716Z,12.60
2019-05-12T05:08:39.855Z,12.60
2019-05-12T05:09:14.555Z,12.60
2019-05-12T05:09:48.516Z,12.60
2019-05-12T05:10:24.717Z,12.70
2019-05-12T05:10:57.751Z,12.70
2019-05-12T05:11:34.347Z,12.70
2019-05-12T05:12:06.977Z,12.70
2019-05-12T05:12:40.772Z,12.70
2019-05-12T05:13:15.204Z,12.70
2019-05-12T05:13:49.282Z,12.80
2019-05-12T05:14:24.783Z,12.80
2019-05-12T05:14:58.517Z,12.80
2019-05-12T05:15:34.669Z,12.80
2019-05-12T05:16:07.924Z,12.80
2019-05-12T05:16:41.720Z,12.90
2019-05-12T05:17:15.316Z,12.90
2019-05-12T05:17:49.291Z,12.90
2019-05-12T05:18:23.903Z,12.90
2019-05-12T05:18:57.790Z,12.90
2019-05-12T05:19:33.625Z,12.90
2019-05-12T05:20:07.881Z,12.90
2019-05-12T05:20:43.685Z,13.00
2019-05-12T05:21:17.116Z,13.00
2019-05-12T05:21:50.903Z,13.00
2019-05-12T05:22:24.695Z,13.00
2019-05-12T05:22:58.667Z,13.00
2019-05-12T05:23:33.502Z,13.00
2019-05-12T05:24:07.431Z,13.00
2019-05-12T05:24:41.423Z,13.10
2019-05-12T05:25:15.415Z,13.00
2019-05-12T05:25:49.021Z,13.10
2019-05-12T05:26:27.792Z,13.10
2019-05-12T05:26:58.647Z,13.10
2019-05-12T05:27:34.085Z,13.10
2019-05-12T05:28:07.889Z,13.10
2019-05-12T05:28:43.528Z,13.20
2019-05-12T05:29:17.316Z,13.20
2019-05-12T05:29:51.281Z,13.20
2019-05-12T05:30:25.099Z,13.20
2019-05-12T05:30:58.715Z,13.20
2019-05-12T05:31:33.656Z,13.20
2019-05-12T05:32:07.968Z,13.20
2019-05-12T05:32:41.569Z,13.30
2019-05-12T05:33:15.365Z,13.30
2019-05-12T05:33:50.266Z,13.30
2019-05-12T05:34:24.221Z,13.30
2019-05-12T05:34:58.026Z,13.30
2019-05-12T05:35:37.168Z,13.30
2019-05-12T05:36:08.960Z,13.40
2019-05-12T05:36:43.381Z,13.40
2019-05-12T05:37:17.513Z,13.40
2019-05-12T05:37:51.097Z,13.40
2019-05-12T05:38:25.079Z,13.40
2019-05-12T05:39:01.835Z,13.40
2019-05-12T05:39:35.692Z,13.50
2019-05-12T05:40:09.736Z,13.50
2019-05-12T05:40:45.267Z,13.50
2019-05-12T05:41:19.075Z,13.50
2019-05-12T05:41:53.797Z,13.50
2019-05-12T05:42:32.642Z,13.50
2019-05-12T05:43:12.242Z,13.60
2019-05-12T05:43:38.821Z,13.60
2019-05-12T05:44:13.898Z,13.60
2019-05-12T05:44:47.610Z,13.60
2019-05-12T05:45:24.236Z,13.60
2019-05-12T05:46:02.681Z,13.60
2019-05-12T05:46:33.685Z,13.70
2019-05-12T05:47:07.591Z,13.70
2019-05-12T05:47:44.083Z,13.70
2019-05-12T05:48:17.014Z,13.70
2019-05-12T05:48:50.807Z,13.70
2019-05-12T05:49:24.598Z,13.70
2019-05-12T05:49:58.382Z,13.70
2019-05-12T05:50:34.263Z,13.70
2019-05-12T05:51:09.153Z,13.80
2019-05-12T05:51:46.647Z,13.80
2019-05-12T05:52:18.656Z,13.80
2019-05-12T05:52:54.270Z,13.80
2019-05-12T05:53:28.058Z,13.80
2019-05-12T05:54:03.899Z,13.80
2019-05-12T05:54:39.961Z,13.80
2019-05-12T05:55:15.677Z,13.80
2019-05-12T05:55:50.464Z,13.80
2019-05-12T05:56:38.358Z,13.80
2019-05-12T05:57:02.812Z,13.80
2019-05-12T05:57:34.961Z,13.80
2019-05-12T05:58:10.600Z,13.80
2019-05-12T05:58:47.188Z,13.90
2019-05-12T05:59:21.895Z,13.80
2019-05-12T05:59:55.268Z,13.90
2019-05-12T06:00:28.942Z,13.90
2019-05-12T06:01:07.645Z,13.90
2019-05-12T06:01:40.047Z,13.90
2019-05-12T06:02:13.966Z,13.90
2019-05-12T06:02:47.731Z,13.90
2019-05-12T06:03:27.197Z,13.90
2019-05-12T06:03:58.294Z,13.90
2019-05-12T06:04:34.132Z,13.90
2019-05-12T06:05:08.133Z,14.00
2019-05-12T06:05:43.362Z,14.00
2019-05-12T06:06:17.349Z,14.00
2019-05-12T06:06:55.723Z,14.00
2019-05-12T06:07:34.973Z,14.00
2019-05-12T06:08:04.213Z,14.00
2019-05-12T06:08:38.146Z,14.00
2019-05-12T06:09:14.148Z,14.00
2019-05-12T06:09:48.323Z,14.00
2019-05-12T06:10:34.841Z,14.00
2019-05-12T06:10:59.155Z,14.00
2019-05-12T06:11:34.537Z,14.00
2019-05-12T06:12:10.115Z,14.10
2019-05-12T06:12:48.717Z,14.00
2019-05-12T06:13:21.153Z,14.10
2019-05-12T06:13:55.090Z,14.10
2019-05-12T06:14:28.713Z,14.10
2019-05-12T06:15:04.195Z,14.10
2019-05-12T06:15:40.659Z,14.10
2019-05-12T06:16:20.108Z,14.10
2019-05-12T06:16:50.233Z,14.10
2019-05-12T06:17:24.024Z,14.20
2019-05-12T06:17:57.978Z,14.20
2019-05-12T06:18:33.480Z,14.20
2019-05-12T06:19:07.455Z,14.20
2019-05-12T06:19:43.650Z,14.20
2019-05-12T06:20:16.783Z,14.20
2019-05-12T06:20:51.276Z,14.20
2019-05-12T06:21:29.086Z,14.20
2019-05-12T06:22:00.291Z,14.30
2019-05-12T06:22:35.437Z,14.30
2019-05-12T06:23:09.490Z,14.30
2019-05-12T06:23:43.570Z,14.30
2019-05-12T06:24:20.046Z,14.40
2019-05-12T06:24:56.931Z,14.40
2019-05-12T06:25:44.625Z,14.40
2019-05-12T06:26:04.903Z,14.40
2019-05-12T06:26:38.524Z,14.40
2019-05-12T06:27:18.632Z,14.50
2019-05-12T06:27:51.113Z,14.50
2019-05-12T06:28:23.548Z,14.50
2019-05-12T06:28:57.846Z,14.50
2019-05-12T06:29:33.340Z,14.50
2019-05-12T06:30:09.571Z,14.60
2019-05-12T06:30:44.884Z,14.60
2019-05-12T06:31:23.648Z,14.60
2019-05-12T06:31:54.331Z,14.60
2019-05-12T06:32:28.473Z,14.70
2019-05-12T06:33:04.236Z,14.70
2019-05-12T06:33:38.279Z,14.70
2019-05-12T06:34:15.308Z,14.70
2019-05-12T06:34:50.856Z,14.70
2019-05-12T06:35:24.074Z,14.70
2019-05-12T06:35:58.019Z,14.80
2019-05-12T06:36:34.061Z,14.80
2019-05-12T06:37:12.131Z,14.80
2019-05-12T06:37:44.367Z,14.80
2019-05-12T06:38:18.419Z,14.80
2019-05-12T06:38:54.183Z,14.90
2019-05-12T06:39:27.826Z,14.90
2019-05-12T06:40:03.549Z,14.90
2019-05-12T06:40:41.193Z,14.90
2019-05-12T06:41:20.321Z,14.90
2019-05-12T06:41:48.120Z,14.90
2019-05-12T06:42:24.101Z,15.00
2019-05-12T06:42:57.276Z,15.00
2019-05-12T06:43:35.259Z,15.00
2019-05-12T06:44:08.806Z,15.10
2019-05-12T06:44:43.771Z,15.00
2019-05-12T06:45:17.742Z,15.10
2019-05-12T06:45:51.539Z,15.10
2019-05-12T06:46:25.930Z,15.10
2019-05-12T06:47:03.297Z,15.10
2019-05-12T06:47:39.445Z,15.10
2019-05-12T06:48:13.357Z,15.20
2019-05-12T06:48:47.036Z,15.20
2019-05-12T06:49:20.648Z,15.20
2019-05-12T06:49:58.042Z,15.20
2019-05-12T06:50:37.029Z,15.30
2019-05-12T06:51:09.151Z,15.30
2019-05-12T06:51:40.928Z,15.30
2019-05-12T06:52:14.720Z,15.30
2019-05-12T06:52:49.173Z,15.30
2019-05-12T06:53:29.061Z,15.40
2019-05-12T06:54:00.969Z,15.40
2019-05-12T06:54:34.242Z,15.40
2019-05-12T06:55:08.203Z,15.40
2019-05-12T06:55:43.308Z,15.50
2019-05-12T06:56:19.752Z,15.50
2019-05-12T06:56:59.472Z,15.50
2019-05-12T06:57:28.980Z,15.50
2019-05-12T06:58:04.744Z,15.50
2019-05-12T06:58:38.487Z,15.50
2019-05-12T06:59:14.656Z,15.60
2019-05-12T06:59:51.140Z,15.60
2019-05-12T07:00:30.817Z,15.60
2019-05-12T07:01:02.366Z,15.60
2019-05-12T07:01:34.025Z,15.60
2019-05-12T07:02:08.068Z,15.70
2019-05-12T07:02:50.051Z,15.70
2019-05-12T07:03:19.321Z,15.70
2019-05-12T07:03:53.452Z,15.70
2019-05-12T07:04:27.494Z,15.70
2019-05-12T07:05:01.291Z,15.70
2019-05-12T07:05:38.315Z,15.70
2019-05-12T07:06:17.547Z,15.70
2019-05-12T07:06:49.806Z,15.80
2019-05-12T07:07:23.802Z,15.70
2019-05-12T07:07:57.050Z,15.80
2019-05-12T07:08:34.539Z,15.70
2019-05-12T07:09:09.812Z,15.70
2019-05-12T07:09:53.632Z,15.70
2019-05-12T07:10:35.647Z,15.70
2019-05-12T07:11:01.670Z,15.80
2019-05-12T07:11:41.673Z,15.70
2019-05-12T07:12:07.174Z,15.70
2019-05-12T07:12:55.956Z,15.70
2019-05-12T07:13:23.387Z,15.80
2019-05-12T07:14:02.103Z,15.80
2019-05-12T07:14:28.015Z,15.70
2019-05-12T07:15:03.802Z,15.80
2019-05-12T07:15:40.365Z,15.80
2019-05-12T07:16:23.254Z,15.70
2019-05-12T07:17:01.567Z,15.80
2019-05-12T07:17:43.923Z,15.80
2019-05-12T07:18:17.665Z,15.80
2019-05-12T07:18:50.580Z,15.80
2019-05-12T07:19:25.573Z,15.80
2019-05-12T07:19:59.500Z,15.80
2019-05-12T07:20:35.358Z,15.80
2019-05-12T07:21:09.450Z,15.80
2019-05-12T07:21:44.543Z,15.80
2019-05-12T07:22:22.049Z,15.80
2019-05-12T07:22:54.865Z,15.80
2019-05-12T07:23:30.201Z,15.80
2019-05-12T07:24:06.703Z,15.80
2019-05-12T07:24:41.019Z,15.80
2019-05-12T07:25:15.046Z,15.80
2019-05-12T07:25:49.040Z,15.80